Time;durP1;ratioP1;P1;durP2;ratioP2;P2;SDS_P1;SDS_P2;PMS_P1;PMS_P2;Temp;Humidity;BMP_temperature;BMP_pressure;BME280_temperature;BME280_humidity;BME280_pressure;Samples;Min_cycle;Max_cycle;Signal;HPM_P1;HPM_P2
2021/09/07 00:00:53;;;;;;;10.00;6.23;;;;;;;9.88;74.29;100713.70;254584;1104;116492;-66
2021/09/07 00:05:56;;;;;;;5.33;4.07;;;;;;;9.90;74.25;100706.33;254774;1104;116345;-67
2021/09/07 00:10:58;;;;;;;9.35;5.53;;;;;;;9.82;74.54;100696.70;255184;1104;115747;-66
2021/09/07 00:16:02;;;;;;;7.00;5.15;;;;;;;9.82;74.44;100695.88;254260;1104;116112;-68
2021/09/07 00:21:06;;;;;;;10.10;5.10;;;;;;;9.85;74.53;100696.28;255275;1101;115752;-67
2021/09/07 00:26:10;;;;;;;10.15;5.35;;;;;;;9.79;74.27;100689.94;254877;1103;116497;-68
2021/09/07 00:31:13;;;;;;;5.60;4.15;;;;;;;9.79;74.02;100686.45;255209;1103;116235;-67
2021/09/07 00:36:16;;;;;;;5.25;4.18;;;;;;;9.83;74.66;100692.19;254343;1101;116010;-67
2021/09/07 00:41:20;;;;;;;6.05;5.28;;;;;;;9.87;74.54;100693.42;255077;1101;115122;-67
2021/09/07 00:46:23;;;;;;;5.93;4.53;;;;;;;9.89;74.86;100686.05;254542;1102;115475;-67
2021/09/07 00:51:27;;;;;;;6.60;5.17;;;;;;;9.99;74.61;100681.13;254019;1104;115456;-67
2021/09/07 00:56:33;;;;;;;12.00;6.20;;;;;;;10.02;74.71;100683.38;254443;1104;116439;-67
2021/09/07 01:01:37;;;;;;;6.23;5.45;;;;;;;9.97;74.42;100680.51;255725;1101;116123;-67
2021/09/07 01:06:41;;;;;;;10.35;6.38;;;;;;;9.86;74.31;100676.63;254328;1101;115475;-67
2021/09/07 01:11:45;;;;;;;6.53;4.70;;;;;;;9.89;73.99;100670.06;255235;1101;116457;-69
2021/09/07 01:16:49;;;;;;;6.90;5.15;;;;;;;9.90;74.54;100663.72;255022;1103;114609;-68
2021/09/07 01:21:52;;;;;;;9.13;5.83;;;;;;;9.90;74.32;100666.38;256260;1102;115561;-69
2021/09/07 01:26:56;;;;;;;10.28;5.15;;;;;;;9.91;75.15;100660.03;257418;1101;116151;-67
2021/09/07 01:32:01;;;;;;;7.23;5.90;;;;;;;9.94;74.31;100656.95;257327;1103;114934;-64
2021/09/07 01:37:06;;;;;;;7.08;5.53;;;;;;;9.94;73.76;100662.28;257408;1102;116504;-65
2021/09/07 01:42:10;;;;;;;7.48;5.58;;;;;;;9.90;73.81;100661.88;255028;1097;116089;-68
2021/09/07 01:47:13;;;;;;;7.93;5.07;;;;;;;9.91;74.19;100654.70;254809;1102;116162;-68
2021/09/07 01:52:17;;;;;;;6.87;5.13;;;;;;;9.96;74.00;100655.72;254932;1101;116361;-68
2021/09/07 01:57:20;;;;;;;6.53;5.10;;;;;;;9.94;74.12;100649.78;255405;1101;115622;-67
2021/09/07 02:02:24;;;;;;;6.60;5.38;;;;;;;9.93;74.61;100647.33;254149;1102;116410;-68
2021/09/07 02:07:29;;;;;;;8.20;5.43;;;;;;;9.98;74.93;100640.34;254248;1101;116291;-68
2021/09/07 02:12:32;;;;;;;7.25;5.38;;;;;;;10.03;74.96;100634.41;254362;1101;115050;-67
2021/09/07 02:17:37;;;;;;;9.43;5.88;;;;;;;10.01;74.98;100636.45;254632;1097;116720;-68
2021/09/07 02:22:41;;;;;;;9.85;5.63;;;;;;;9.98;74.91;100642.20;254898;1102;116256;-68
2021/09/07 02:27:45;;;;;;;7.98;5.75;;;;;;;9.99;74.65;100638.51;254232;1103;117313;-67
2021/09/07 02:32:48;;;;;;;9.87;6.53;;;;;;;9.98;74.79;100620.89;254334;1104;120298;-67
2021/09/07 02:37:51;;;;;;;8.85;6.73;;;;;;;10.00;74.49;100616.99;254385;1104;116219;-67
2021/09/07 02:42:55;;;;;;;9.30;6.85;;;;;;;9.86;74.70;100609.23;255434;1097;117472;-67
2021/09/07 02:47:59;;;;;;;11.53;6.23;;;;;;;9.84;74.24;100608.62;254365;1104;117215;-67
2021/09/07 02:53:02;;;;;;;8.58;6.25;;;;;;;9.82;74.49;100590.19;254751;1096;115875;-68
2021/09/07 02:58:05;;;;;;;11.43;6.78;;;;;;;9.77;73.96;100596.16;254598;1103;115143;-67
2021/09/07 03:03:09;;;;;;;8.35;5.30;;;;;;;9.75;73.99;100590.22;255886;1103;116283;-69
2021/09/07 03:08:14;;;;;;;9.78;6.48;;;;;;;9.76;74.43;100583.05;254214;1097;117135;-68
2021/09/07 03:13:17;;;;;;;7.30;6.43;;;;;;;9.82;74.71;100594.69;254484;1101;115964;-67
2021/09/07 03:18:19;;;;;;;10.08;7.08;;;;;;;9.84;74.58;100592.64;254012;1101;116994;-68
2021/09/07 03:23:21;;;;;;;7.48;5.70;;;;;;;9.88;74.97;100588.53;254337;1101;116551;-67
2021/09/07 03:28:24;;;;;;;8.88;5.85;;;;;;;9.95;75.30;100595.48;254198;1101;116732;-67
2021/09/07 03:33:28;;;;;;;11.80;7.05;;;;;;;9.97;74.81;100590.77;254272;1097;116415;-67
2021/09/07 03:38:31;;;;;;;10.13;6.43;;;;;;;9.92;74.93;100598.56;255204;1101;116100;-67
2021/09/07 03:43:35;;;;;;;8.85;6.38;;;;;;;9.98;74.93;100589.74;255071;1103;115400;-66
2021/09/07 03:48:40;;;;;;;6.50;5.85;;;;;;;10.04;74.46;100585.42;256384;1104;118591;-66
2021/09/07 03:53:46;;;;;;;8.08;6.30;;;;;;;10.03;75.15;100589.12;254298;1104;116944;-65
2021/09/07 03:58:49;;;;;;;9.57;6.60;;;;;;;10.00;74.93;100598.34;254552;1103;116582;-66
2021/09/07 04:03:53;;;;;;;8.93;6.25;;;;;;;10.01;75.18;100591.99;254664;1101;116029;-66
2021/09/07 04:08:56;;;;;;;7.27;6.57;;;;;;;10.00;75.06;100592.20;255696;1101;115897;-67
2021/09/07 04:14:00;;;;;;;10.80;6.40;;;;;;;9.98;75.07;100588.92;255298;1104;116189;-66
2021/09/07 04:19:02;;;;;;;9.17;6.43;;;;;;;10.03;74.66;100602.44;255935;1102;116657;-66
2021/09/07 04:24:05;;;;;;;7.80;5.83;;;;;;;10.04;75.26;100598.75;254769;1103;115739;-66
2021/09/07 04:29:07;;;;;;;11.83;6.90;;;;;;;10.11;75.04;100604.84;254565;1104;115794;-67
2021/09/07 04:34:11;;;;;;;6.10;5.50;;;;;;;10.12;75.03;100609.14;255268;1104;115285;-67
2021/09/07 04:39:15;;;;;;;10.20;6.93;;;;;;;10.13;75.59;100605.45;254082;1104;115317;-67
2021/09/07 04:44:21;;;;;;;7.95;4.98;;;;;;;10.21;75.27;100604.44;255014;1097;116212;-65
2021/09/07 04:49:24;;;;;;;6.33;5.58;;;;;;;10.35;75.77;100600.70;254450;1102;115795;-65
2021/09/07 04:54:28;;;;;;;7.33;5.75;;;;;;;10.47;75.88;100596.32;254037;1104;115717;-66
2021/09/07 04:59:32;;;;;;;9.50;5.68;;;;;;;10.65;75.90;100591.11;255856;1101;115587;-67
2021/09/07 05:04:37;;;;;;;7.14;6.26;;;;;;;10.81;75.69;100595.10;256904;1101;114852;-67
2021/09/07 05:09:42;;;;;;;13.95;7.40;;;;;;;10.88;75.51;100593.22;256540;1101;115095;-66
2021/09/07 05:14:46;;;;;;;11.20;6.23;;;;;;;11.05;75.27;100596.98;255532;1096;115832;-67
2021/09/07 05:19:49;;;;;;;8.95;6.20;;;;;;;11.29;75.72;100598.05;255760;1101;116389;-66
2021/09/07 05:24:53;;;;;;;6.63;4.77;;;;;;;11.38;75.49;100594.05;254043;1104;115398;-67
2021/09/07 05:29:56;;;;;;;11.35;5.30;;;;;;;11.50;75.58;100598.67;257216;1102;116017;-66
2021/09/07 05:35:00;;;;;;;6.45;4.90;;;;;;;11.78;75.38;100599.86;255492;1101;115860;-67
2021/09/07 05:40:05;;;;;;;7.83;6.50;;;;;;;11.96;75.37;100600.89;257283;1104;115569;-67
2021/09/07 05:45:12;;;;;;;7.70;6.13;;;;;;;12.08;75.11;100607.14;256067;1097;116495;-66
2021/09/07 05:50:16;;;;;;;8.78;5.80;;;;;;;12.22;74.70;100603.28;254128;1104;116245;-66
2021/09/07 05:55:20;;;;;;;7.93;5.00;;;;;;;12.43;74.22;100605.47;254299;1101;117326;-67
2021/09/07 06:00:23;;;;;;;8.75;6.13;;;;;;;12.78;74.52;100602.94;254554;1104;116677;-65
2021/09/07 06:05:27;;;;;;;8.20;5.47;;;;;;;13.04;73.88;100601.72;255342;1104;116616;-67
2021/09/07 06:10:31;;;;;;;6.03;4.50;;;;;;;13.24;73.71;100605.97;256262;1104;116791;-68
2021/09/07 06:15:39;;;;;;;7.98;5.78;;;;;;;13.41;73.26;100605.07;254106;1101;116145;-69
2021/09/07 06:20:43;;;;;;;7.80;5.63;;;;;;;13.65;73.33;100605.88;254370;1103;116509;-66
2021/09/07 06:25:47;;;;;;;7.23;6.00;;;;;;;14.11;73.22;100612.22;254209;1101;116207;-66
2021/09/07 06:30:56;;;;;;;9.53;5.70;;;;;;;14.32;72.61;100611.61;254383;1101;117571;-66
2021/09/07 06:36:03;;;;;;;7.15;5.03;;;;;;;14.43;71.56;100615.31;254394;1101;116939;-67
2021/09/07 06:41:07;;;;;;;8.05;4.60;;;;;;;14.54;71.23;100627.06;254290;1101;117042;-67
2021/09/07 06:46:11;;;;;;;6.63;4.88;;;;;;;14.71;71.24;100633.28;254247;1101;115637;-67
2021/09/07 06:51:13;;;;;;;7.70;4.60;;;;;;;14.95;71.37;100634.83;254183;1097;116001;-68
2021/09/07 06:56:17;;;;;;;6.45;5.05;;;;;;;15.15;70.99;100628.98;254116;1097;117487;-67
2021/09/07 07:01:20;;;;;;;6.53;5.23;;;;;;;15.52;70.63;100639.26;255650;1101;116209;-67
2021/09/07 07:06:24;;;;;;;4.80;4.25;;;;;;;15.96;70.56;100632.94;253851;1104;115821;-67
2021/09/07 07:11:28;;;;;;;7.17;5.50;;;;;;;16.24;69.42;100637.33;254285;1101;116853;-66
2021/09/07 07:16:32;;;;;;;7.90;5.50;;;;;;;16.63;68.75;100639.95;255711;1104;116279;-66
2021/09/07 07:21:36;;;;;;;8.90;5.45;;;;;;;17.35;68.56;100636.91;254704;1097;117462;-66
2021/09/07 07:26:40;;;;;;;9.68;5.45;;;;;;;17.76;67.10;100641.53;254279;1101;117031;-67
2021/09/07 07:31:43;;;;;;;5.55;3.93;;;;;;;18.08;66.21;100646.03;257279;1101;115931;-67
2021/09/07 07:36:48;;;;;;;5.85;4.60;;;;;;;18.21;65.28;100648.27;257422;1101;117380;-67
2021/09/07 07:41:53;;;;;;;6.93;4.65;;;;;;;18.51;65.65;100642.98;257307;1104;116963;-67
2021/09/07 07:46:58;;;;;;;12.60;4.28;;;;;;;18.63;64.79;100632.00;254496;1104;116675;-68
2021/09/07 07:52:01;;;;;;;5.78;3.88;;;;;;;18.64;64.02;100633.63;255628;1101;116881;-68
2021/09/07 07:57:04;;;;;;;5.98;3.73;;;;;;;18.64;64.00;100640.91;254281;1101;116347;-68
2021/09/07 08:02:07;;;;;;;6.38;3.35;;;;;;;18.74;63.71;100643.62;254895;1101;116213;-69
2021/09/07 08:07:29;;;;;;;7.97;3.90;;;;;;;18.72;63.08;100640.38;255362;1104;115195;-69
2021/09/07 08:12:32;;;;;;;9.10;4.10;;;;;;;18.88;63.75;100644.74;255495;1101;115593;-68
2021/09/07 08:17:35;;;;;;;7.57;4.50;;;;;;;19.00;61.46;100647.98;255058;1101;115844;-68
2021/09/07 08:22:37;;;;;;;4.33;2.85;;;;;;;19.12;61.52;100653.95;254749;1096;117526;-67
2021/09/07 08:27:40;;;;;;;4.57;2.97;;;;;;;19.39;60.77;100655.59;254091;1103;116432;-68
2021/09/07 08:32:43;;;;;;;4.20;3.67;;;;;;;19.64;59.98;100647.48;254071;1104;116167;-67
2021/09/07 08:37:47;;;;;;;5.13;3.33;;;;;;;19.97;60.07;100637.14;254226;1104;116300;-67
2021/09/07 08:42:50;;;;;;;8.60;3.25;;;;;;;20.34;60.30;100636.75;254012;1104;116020;-68
2021/09/07 08:47:59;;;;;;;4.10;2.58;;;;;;;20.71;58.99;100639.84;254223;1104;115646;-68
2021/09/07 08:53:03;;;;;;;4.63;3.20;;;;;;;21.00;57.79;100650.77;254375;1103;115966;-68
2021/09/07 08:58:07;;;;;;;4.20;3.18;;;;;;;21.13;56.02;100647.41;254325;1101;115803;-68
2021/09/07 09:03:12;;;;;;;6.38;3.50;;;;;;;21.31;55.17;100653.28;255664;1103;118487;-67
2021/09/07 09:08:18;;;;;;;6.38;4.23;;;;;;;21.56;54.52;100657.68;254315;1101;116016;-65
2021/09/07 09:13:23;;;;;;;7.38;3.13;;;;;;;21.82;54.23;100656.34;254677;1101;115748;-70
2021/09/07 09:18:38;;;;;;;4.78;3.23;;;;;;;21.94;53.25;100661.39;255236;1102;115516;-69
2021/09/07 09:23:41;;;;;;;6.38;2.85;;;;;;;22.10;53.28;100655.52;255487;1101;115762;-68
2021/09/07 09:28:58;;;;;;;4.00;3.60;;;;;;;22.37;53.67;100654.92;254426;1101;115068;-67
2021/09/07 09:34:02;;;;;;;3.93;2.60;;;;;;;22.60;51.87;100666.88;254560;1101;115342;-68
2021/09/07 09:39:06;;;;;;;3.80;3.10;;;;;;;22.70;50.20;100663.20;257276;1101;114962;-68
2021/09/07 09:44:09;;;;;;;4.28;2.93;;;;;;;22.57;49.94;100656.59;257373;1101;116241;-67
2021/09/07 09:49:14;;;;;;;5.08;3.20;;;;;;;22.68;49.72;100659.95;257343;1101;116073;-67
2021/09/07 09:54:17;;;;;;;10.15;3.38;;;;;;;22.99;50.48;100650.30;255765;1101;116194;-68
2021/09/07 09:59:21;;;;;;;6.65;2.98;;;;;;;23.14;50.59;100652.80;254183;1101;116495;-68
2021/09/07 10:04:27;;;;;;;5.18;3.03;;;;;;;23.41;50.72;100656.72;255943;1102;115525;-70
2021/09/07 10:09:30;;;;;;;;;;;;;;;23.51;50.32;100651.92;254538;1104;115101;-68
2021/09/07 10:14:38;;;;;;;3.73;3.30;;;;;;;23.71;50.70;100650.77;256351;1101;102942;-68
2021/09/07 10:19:57;;;;;;;7.93;3.35;;;;;;;23.98;49.64;100646.46;254213;1101;116393;-67
2021/09/07 10:25:02;;;;;;;5.78;3.55;;;;;;;24.14;49.33;100640.43;254298;1096;115697;-69
2021/09/07 10:30:09;;;;;;;3.03;2.73;;;;;;;24.26;48.03;100634.48;255247;1102;116047;-70
2021/09/07 10:35:16;;;;;;;11.85;4.08;;;;;;;24.14;48.74;100637.70;254411;1096;116821;-69
2021/09/07 10:40:42;;;;;;;7.85;3.08;;;;;;;24.28;48.81;100628.73;254377;1101;116580;-69
2021/09/07 10:45:47;;;;;;;8.40;3.48;;;;;;;24.50;47.77;100628.79;254328;1101;116248;-68
2021/09/07 10:51:02;;;;;;;10.58;3.70;;;;;;;24.59;47.07;100628.88;254352;1101;118296;-70
2021/09/07 10:56:24;;;;;;;4.60;2.78;;;;;;;24.63;46.78;100621.70;254419;1103;117197;-68
2021/09/07 11:01:31;;;;;;;4.97;3.60;;;;;;;24.78;47.95;100624.08;254685;1101;119114;-68
2021/09/07 11:06:41;;;;;;;6.75;3.20;;;;;;;24.70;46.04;100627.55;254071;1096;117049;-68
2021/09/07 11:11:45;;;;;;;5.43;3.60;;;;;;;24.67;46.62;100623.52;254244;1103;117368;-68
2021/09/07 11:16:54;;;;;;;5.60;3.68;;;;;;;24.60;46.80;100614.95;254028;1104;117387;-68
2021/09/07 11:21:57;;;;;;;5.25;4.85;;;;;;;24.60;46.65;100631.30;254739;1102;116571;-68
2021/09/07 11:27:00;;;;;;;8.37;4.50;;;;;;;24.63;45.26;100622.52;254169;1097;116102;-70
2021/09/07 11:32:22;;;;;;;4.70;4.20;;;;;;;24.72;45.28;100617.95;257127;1102;115547;-70
2021/09/07 11:37:25;;;;;;;8.43;4.08;;;;;;;24.72;44.59;100619.88;254232;1101;115837;-70
2021/09/07 11:42:29;;;;;;;7.05;3.75;;;;;;;24.68;44.44;100627.05;255997;1101;115634;-69
2021/09/07 11:47:33;;;;;;;6.03;5.07;;;;;;;24.48;45.45;100620.92;257195;1104;115063;-68
2021/09/07 11:52:37;;;;;;;6.80;5.03;;;;;;;24.66;45.19;100626.55;256828;1103;115873;-69
2021/09/07 11:57:46;;;;;;;11.70;7.53;;;;;;;24.73;44.71;100621.48;255712;1097;116820;-69
2021/09/07 12:03:16;;;;;;;6.43;5.63;;;;;;;24.63;45.06;100621.70;255083;1104;116129;-67
2021/09/07 12:08:19;;;;;;;7.55;3.70;;;;;;;24.68;45.21;100618.88;254199;1104;117461;-67
2021/09/07 12:13:23;;;;;;;6.70;4.80;;;;;;;24.73;44.42;100605.13;254138;1104;115980;-67
2021/09/07 12:18:38;;;;;;;8.75;5.13;;;;;;;24.72;44.02;100604.33;254347;1101;115629;-66
2021/09/07 12:23:45;;;;;;;10.05;4.85;;;;;;;24.71;43.96;100599.17;255452;1101;114901;-66
2021/09/07 12:28:48;;;;;;;10.50;6.23;;;;;;;24.69;43.54;100599.48;254131;1104;115692;-66
2021/09/07 12:33:54;;;;;;;5.68;4.58;;;;;;;24.69;43.83;100593.22;254272;1103;204169;-67
2021/09/07 12:38:58;;;;;;;7.90;5.37;;;;;;;24.65;43.85;100598.48;254395;1101;115145;-66
2021/09/07 12:44:01;;;;;;;12.60;5.10;;;;;;;24.57;43.62;100607.38;254515;1101;116418;-66
2021/09/07 12:49:04;;;;;;;10.23;5.75;;;;;;;24.58;44.21;100609.00;254820;1103;116695;-71
2021/09/07 12:54:08;;;;;;;8.80;5.98;;;;;;;24.46;44.61;100597.80;254600;1097;116474;-67
2021/09/07 12:59:11;;;;;;;12.43;6.05;;;;;;;24.30;43.91;100594.63;254445;1096;116365;-68
2021/09/07 13:04:14;;;;;;;8.73;5.73;;;;;;;23.98;44.93;100589.27;254494;1101;116409;-67
2021/09/07 13:09:17;;;;;;;8.05;5.78;;;;;;;24.07;45.25;100571.13;254165;1101;115531;-69
2021/09/07 13:14:21;;;;;;;7.53;6.28;;;;;;;24.13;44.81;100575.36;254054;1102;115622;-70
2021/09/07 13:19:31;;;;;;;11.27;5.70;;;;;;;24.06;45.18;100573.03;254773;1101;115617;-69
2021/09/07 13:24:35;;;;;;;6.45;5.73;;;;;;;23.91;45.56;100564.36;255231;1104;116840;-67
2021/09/07 13:29:39;;;;;;;6.23;5.63;;;;;;;23.67;44.98;100576.26;255084;1102;115774;-69
2021/09/07 13:34:44;;;;;;;7.65;5.45;;;;;;;23.72;45.42;100570.72;254333;1104;116065;-69
2021/09/07 13:39:48;;;;;;;6.90;5.93;;;;;;;23.79;45.21;100571.13;254132;1101;115407;-69
2021/09/07 13:44:51;;;;;;;8.33;6.43;;;;;;;23.86;45.56;100565.26;254055;1097;115883;-69
2021/09/07 13:49:55;;;;;;;7.40;5.20;;;;;;;23.91;45.17;100564.36;254566;1104;115400;-68
2021/09/07 13:54:58;;;;;;;5.45;4.48;;;;;;;23.88;45.02;100563.05;257006;1103;115246;-67
2021/09/07 14:00:03;;;;;;;17.25;6.03;;;;;;;23.92;45.14;100558.61;257205;1101;116538;-68
2021/09/07 14:05:09;;;;;;;10.15;6.55;;;;;;;23.96;45.47;100561.53;256072;1101;118845;-68
2021/09/07 14:10:13;;;;;;;9.73;6.08;;;;;;;23.88;45.36;100563.05;256051;1102;117269;-68
2021/09/07 14:15:17;;;;;;;10.48;6.20;;;;;;;23.82;44.97;100565.09;254335;1095;116287;-68
2021/09/07 14:20:21;;;;;;;11.43;5.95;;;;;;;23.73;44.87;100561.45;254944;1096;116239;-68
2021/09/07 14:25:25;;;;;;;14.28;6.28;;;;;;;23.58;44.84;100561.73;254246;1097;116552;-68
2021/09/07 14:30:28;;;;;;;10.80;5.95;;;;;;;23.47;45.32;100560.29;254016;1104;116517;-68
2021/09/07 14:35:33;;;;;;;8.13;7.08;;;;;;;23.30;45.18;100555.41;253895;1101;117348;-68
2021/09/07 14:40:38;;;;;;;11.90;7.70;;;;;;;23.22;45.48;100558.03;254469;1101;115195;-68
2021/09/07 14:45:42;;;;;;;9.15;6.08;;;;;;;23.12;46.02;100551.66;254146;1097;115763;-68
2021/09/07 14:50:46;;;;;;;8.35;6.25;;;;;;;23.09;45.82;100552.25;254263;1104;117484;-69
2021/09/07 14:55:51;;;;;;;8.35;6.00;;;;;;;23.02;46.36;100546.38;254576;1104;116564;-67
2021/09/07 15:00:58;;;;;;;5.60;4.90;;;;;;;22.82;46.83;100554.88;254730;1103;118019;-68
2021/09/07 15:06:01;;;;;;;9.40;6.48;;;;;;;22.70;46.96;100557.20;254160;1104;116073;-72
2021/09/07 15:11:04;;;;;;;13.63;6.23;;;;;;;22.64;47.54;100552.94;254637;1096;116110;-71
2021/09/07 15:16:08;;;;;;;12.08;7.15;;;;;;;22.56;47.78;100559.87;254161;1102;115447;-71
2021/09/07 15:21:12;;;;;;;10.98;8.10;;;;;;;22.45;47.49;100559.20;255284;1103;116485;-71
2021/09/07 15:26:16;;;;;;;8.58;6.95;;;;;;;22.36;47.96;100560.14;254679;1096;116915;-69
2021/09/07 15:31:20;;;;;;;11.53;5.25;;;;;;;22.25;48.43;100558.68;254846;1102;117221;-69
2021/09/07 15:36:24;;;;;;;6.60;5.40;;;;;;;22.11;48.60;100561.29;254281;1104;117298;-70
2021/09/07 15:41:27;;;;;;;8.53;5.98;;;;;;;21.95;48.51;100567.99;256526;1101;115997;-70
2021/09/07 15:46:31;;;;;;;6.95;4.68;;;;;;;21.82;48.99;100556.72;254095;1102;117714;-71
2021/09/07 15:51:36;;;;;;;12.62;5.32;;;;;;;21.75;49.31;100566.30;257291;1101;116052;-68
2021/09/07 15:56:41;;;;;;;;;;;;;;;21.65;50.09;100556.39;256308;1104;116521;-67
2021/09/07 16:01:45;;;;;;;6.65;4.88;;;;;;;21.52;50.98;100557.06;258145;1101;103488;-68
2021/09/07 16:06:48;;;;;;;10.90;5.50;;;;;;;21.40;51.73;100559.38;256433;1096;115550;-68
2021/09/07 16:11:53;;;;;;;9.98;5.78;;;;;;;21.23;52.60;100556.27;254125;1102;115644;-70
2021/09/07 16:16:56;;;;;;;9.28;5.90;;;;;;;21.06;53.35;100552.06;254182;1097;115391;-69
2021/09/07 16:22:00;;;;;;;13.58;6.13;;;;;;;20.83;53.54;100552.77;254589;1104;120317;-68
2021/09/07 16:27:03;;;;;;;10.50;6.18;;;;;;;20.60;54.01;100550.78;254021;1097;120044;-68
2021/09/07 16:32:07;;;;;;;10.63;5.33;;;;;;;20.37;54.89;100549.55;254198;1101;116303;-68
2021/09/07 16:37:10;;;;;;;7.50;5.65;;;;;;;20.14;55.17;100551.03;254189;1101;117356;-67
2021/09/07 16:42:13;;;;;;;6.75;5.03;;;;;;;19.90;55.76;100553.54;254520;1101;116014;-69
2021/09/07 16:47:17;;;;;;;8.38;6.30;;;;;;;19.64;56.43;100560.94;254365;1101;115401;-67
2021/09/07 16:52:21;;;;;;;11.50;5.15;;;;;;;19.39;56.72;100563.66;254288;1101;116175;-70
2021/09/07 16:57:29;;;;;;;9.83;5.95;;;;;;;19.17;57.62;100553.16;254269;1101;115152;-68
2021/09/07 17:02:33;;;;;;;9.10;5.53;;;;;;;18.94;57.86;100551.81;254171;1102;115614;-67
2021/09/07 17:07:48;;;;;;;8.90;6.15;;;;;;;18.75;58.50;100562.33;254208;1102;116691;-67
2021/09/07 17:12:56;;;;;;;15.63;6.75;;;;;;;18.53;58.96;100560.91;254505;1103;115377;-68
2021/09/07 17:18:00;;;;;;;7.50;5.30;;;;;;;18.30;59.54;100571.13;254382;1101;114798;-68
2021/09/07 17:23:06;;;;;;;7.68;5.88;;;;;;;18.05;59.81;100571.01;254697;1101;115177;-68
2021/09/07 17:28:15;;;;;;;12.55;6.45;;;;;;;17.76;60.11;100576.81;254303;1101;115161;-68
2021/09/07 17:38:51;;;;;;;7.07;5.87;;;;;;;17.35;61.68;100577.62;254876;1102;115815;-64
2021/09/07 17:43:55;;;;;;;14.10;5.78;;;;;;;17.13;61.35;100575.81;254605;1101;115264;-68
2021/09/07 17:48:58;;;;;;;11.90;6.85;;;;;;;16.84;61.54;100583.38;254230;1101;115218;-68
2021/09/07 17:54:04;;;;;;;14.65;6.40;;;;;;;16.66;62.34;100588.33;257247;1101;115699;-68
2021/09/07 17:59:08;;;;;;;10.08;5.35;;;;;;;16.53;62.47;100596.77;256189;1101;115948;-68
2021/09/07 18:04:11;;;;;;;7.65;6.18;;;;;;;16.39;62.77;100597.17;257260;1101;115501;-71
2021/09/07 18:09:15;;;;;;;9.28;5.70;;;;;;;16.27;62.98;100601.86;256936;1102;115868;-68
2021/09/07 18:14:20;;;;;;;10.23;6.75;;;;;;;16.13;63.49;100596.06;255563;1101;120110;-70
2021/09/07 18:19:24;;;;;;;9.23;6.05;;;;;;;15.95;63.92;100595.53;254203;1097;115443;-69
2021/09/07 18:24:28;;;;;;;10.08;6.73;;;;;;;15.79;64.16;100603.41;255451;1101;115870;-68
2021/09/07 18:29:32;;;;;;;13.15;6.73;;;;;;;15.68;64.50;100601.63;254347;1101;115688;-66
2021/09/07 18:34:35;;;;;;;11.93;7.73;;;;;;;15.48;64.27;100604.00;254010;1104;116004;-67
2021/09/07 18:39:39;;;;;;;11.70;8.28;;;;;;;15.16;64.57;100604.58;254021;1104;115739;-67
2021/09/07 18:44:42;;;;;;;23.00;8.23;;;;;;;15.00;65.16;100613.41;254528;1103;116487;-66
2021/09/07 18:49:47;;;;;;;12.17;7.00;;;;;;;14.91;65.36;100612.20;254555;1102;115762;-67
2021/09/07 18:54:50;;;;;;;10.40;6.93;;;;;;;14.81;65.85;100622.75;255017;1101;115957;-67
2021/09/07 18:59:53;;;;;;;21.68;7.18;;;;;;;14.70;66.50;100615.55;254331;1102;115279;-67
2021/09/07 19:04:57;;;;;;;11.05;7.10;;;;;;;14.66;66.67;100622.48;254423;1104;116651;-67
2021/09/07 19:10:00;;;;;;;15.13;7.75;;;;;;;14.48;66.68;100623.47;254950;1102;116314;-68
2021/09/07 19:15:03;;;;;;;13.55;7.65;;;;;;;14.23;66.47;100620.25;254923;1096;115470;-66
2021/09/07 19:20:08;;;;;;;9.55;8.08;;;;;;;14.05;66.73;100622.05;254128;1101;116517;-67
2021/09/07 19:25:14;;;;;;;15.20;8.58;;;;;;;14.05;67.23;100626.59;255714;1101;115742;-67
2021/09/07 19:30:19;;;;;;;17.13;10.33;;;;;;;14.08;67.82;100634.14;255248;1103;116497;-67
2021/09/07 19:35:35;;;;;;;;;;;;;;;14.07;67.61;100622.59;255358;1104;117459;-67
2021/09/07 19:40:39;;;;;;;10.83;8.90;;;;;;;14.00;67.62;100624.61;254904;1102;103172;-66
2021/09/07 19:45:43;;;;;;;10.98;9.20;;;;;;;13.88;67.67;100622.98;254218;1104;117631;-66
2021/09/07 19:50:46;;;;;;;19.38;9.55;;;;;;;13.65;67.87;100618.46;254102;1102;116957;-67
2021/09/07 19:55:49;;;;;;;32.55;11.50;;;;;;;13.55;68.17;100619.03;254236;1102;116202;-67
2021/09/07 20:00:54;;;;;;;18.10;11.60;;;;;;;13.54;68.49;100622.76;254072;1103;117622;-65
2021/09/07 20:05:58;;;;;;;19.55;11.33;;;;;;;13.57;68.85;100616.94;257150;1101;115808;-67
2021/09/07 20:11:02;;;;;;;13.30;11.25;;;;;;;13.49;68.34;100620.77;255322;1101;116513;-68
2021/09/07 20:16:06;;;;;;;15.28;9.50;;;;;;;13.26;68.36;100619.94;257139;1101;117109;-68
2021/09/07 20:21:09;;;;;;;15.87;9.73;;;;;;;13.14;69.00;100620.72;254692;1097;116482;-68
2021/09/07 20:26:13;;;;;;;15.13;9.80;;;;;;;13.18;69.13;100625.63;254608;1101;115493;-67
2021/09/07 20:31:17;;;;;;;19.28;11.08;;;;;;;13.14;69.22;100622.59;255301;1101;115709;-66
2021/09/07 20:36:20;;;;;;;14.78;10.65;;;;;;;13.07;69.41;100628.03;255671;1096;117873;-66
2021/09/07 20:41:24;;;;;;;15.75;12.18;;;;;;;12.88;69.31;100626.45;255228;1101;116945;-68
2021/09/07 20:46:28;;;;;;;16.87;10.83;;;;;;;12.76;69.58;100628.28;254471;1101;117771;-66
2021/09/07 20:51:31;;;;;;;14.00;11.20;;;;;;;12.71;69.95;100633.50;254751;1101;116239;-67
2021/09/07 20:56:47;;;;;;;18.10;11.63;;;;;;;12.57;69.99;100626.68;254545;1102;115387;-67
2021/09/07 21:01:51;;;;;;;14.73;11.70;;;;;;;12.44;70.20;100628.50;254350;1101;116305;-67
2021/09/07 21:06:55;;;;;;;16.67;11.97;;;;;;;12.33;70.06;100618.55;254280;1104;116171;-67
2021/09/07 21:11:59;;;;;;;10.80;9.70;;;;;;;12.27;70.86;100624.79;254414;1104;175967;-67
2021/09/07 21:17:03;;;;;;;14.27;10.30;;;;;;;12.31;71.20;100622.48;254247;1104;116858;-67
2021/09/07 21:22:07;;;;;;;18.13;11.43;;;;;;;12.28;71.22;100618.41;254137;1104;116709;-67
2021/09/07 21:27:11;;;;;;;14.18;10.18;;;;;;;12.19;70.83;100619.77;254101;1103;116389;-68
2021/09/07 21:32:16;;;;;;;11.93;8.75;;;;;;;12.01;70.81;100622.42;254512;1101;116808;-66
2021/09/07 21:37:21;;;;;;;15.90;12.03;;;;;;;11.84;71.16;100624.06;254785;1101;116654;-68
2021/09/07 21:42:26;;;;;;;25.63;13.13;;;;;;;11.77;71.73;100624.94;254169;1101;116192;-68
2021/09/07 21:47:32;;;;;;;18.63;12.77;;;;;;;11.82;71.92;100624.28;255447;1101;118472;-69
2021/09/07 21:52:35;;;;;;;17.43;11.20;;;;;;;11.85;71.87;100623.84;254452;1101;116339;-67
2021/09/07 21:57:39;;;;;;;12.48;10.15;;;;;;;11.75;71.51;100631.50;254155;1101;115535;-66
2021/09/07 22:02:44;;;;;;;16.08;12.23;;;;;;;11.69;72.22;100625.18;254804;1101;116157;-67
2021/09/07 22:07:48;;;;;;;14.25;10.73;;;;;;;11.65;71.90;100629.33;256831;1101;115517;-66
2021/09/07 22:12:53;;;;;;;14.23;11.43;;;;;;;11.56;71.36;100629.84;257213;1103;115747;-67
2021/09/07 22:17:56;;;;;;;15.83;12.23;;;;;;;11.50;72.10;100626.19;257319;1104;115449;-65
2021/09/07 22:22:59;;;;;;;11.88;10.25;;;;;;;11.52;72.34;100618.78;257408;1101;116258;-66
2021/09/07 22:28:03;;;;;;;16.80;10.83;;;;;;;11.45;72.88;100628.70;256920;1103;115877;-66
2021/09/07 22:33:06;;;;;;;13.58;9.98;;;;;;;11.35;72.39;100633.70;255824;1101;116533;-68
2021/09/07 22:38:09;;;;;;;18.78;12.15;;;;;;;11.29;72.75;100634.59;255036;1101;116216;-67
2021/09/07 22:43:12;;;;;;;13.20;10.98;;;;;;;11.24;72.59;100642.43;254793;1102;116744;-69
2021/09/07 22:48:15;;;;;;;18.65;11.78;;;;;;;11.16;73.00;100642.69;254625;1102;116880;-68
2021/09/07 22:53:18;;;;;;;15.55;11.75;;;;;;;11.10;73.00;100642.52;255481;1101;116743;-69
2021/09/07 22:58:22;;;;;;;19.33;11.80;;;;;;;11.07;73.06;100632.27;254483;1101;116026;-69
2021/09/07 23:03:26;;;;;;;15.15;11.28;;;;;;;11.06;73.39;100635.97;255312;1101;116451;-68